Flight Track Log - Related Links

Times and Time Zones

All times are in EDT time to prevent confusion due to time zone crossing. See the EJA681 flight status page for this flight to view local times or setup timezone preferences in your user account.

Time Position Orientation Groundspeed Altitude Reporting Facility
EDT Latitude Longitude Course Direction KTS MPH feet Rate Location/Type
Fri 12:43:56 PM 41.2947 -95.8864 145° Southeast 142 163 2,100  Level Minneapolis Center
Fri 12:44:44 PM 41.2633 -95.8567 145° Southeast 190 219 4,500 2,507 Climbing Minneapolis Center
Fri 12:45:03 PM 41.2517 -95.8394 132° Southeast 181 208 4,900 1,082 Climbing Minneapolis Center
Fri 12:45:45 PM 41.2153 -95.7958 138° Southeast 262 302 5,600 1,355 Climbing Minneapolis Center
Fri 12:46:05 PM 41.1994 -95.7764 137° Southeast 228 262 6,300 2,700 Climbing Minneapolis Center
Fri 12:46:45 PM 41.1989 -95.7061 91° East 307 353 8,300 2,613 Climbing Minneapolis Center
Fri 12:47:07 PM 41.2108 -95.6786 60° Northeast 280 322 9,000 1,964 Climbing Minneapolis Center
Fri 12:47:40 PM 41.2569 -95.6383 33° Northeast 328 377 10,100 968 Climbing Minneapolis Center
Fri 12:48:09 PM 41.2847 -95.6444 351° North 311 358 10,000  Descending Minneapolis Center
Fri 12:48:34 PM 41.3314 -95.6850 327° Northwest 333 383 10,100  Climbing Minneapolis Center
Fri 12:49:11 PM 41.3628 -95.7058 334° Northwest 322 371 10,000  Descending Minneapolis Center
Fri 12:49:41 PM 41.4156 -95.7556 325° Northwest 334 384 10,100  Climbing Minneapolis Center
Fri 12:50:13 PM 41.4556 -95.7825 333° Northwest 329 379 10,000  Descending Minneapolis Center
Fri 12:50:36 PM 41.4867 -95.8167 321° Northwest 329 379 10,100  Climbing Minneapolis Center
Fri 12:51:15 PM 41.5319 -95.8436 336° Northwest 328 377 10,000  Descending Minneapolis Center
Fri 12:51:43 PM 41.5600 -95.8803 316° Northwest 243 280 10,100 -968 Climbing Minneapolis Center
Fri 12:52:17 PM 41.5614 -95.9017 275° West 258 297 9,000 -2,636 Descending Minneapolis Center
Fri 12:52:49 PM 41.5308 -95.9478 228° Southwest 221 254 7,200 -2,419 Descending Minneapolis Center
Fri 12:53:19 PM 41.5214 -95.9458 171° South 247 284 6,500 -2,951 Descending Minneapolis Center
Fri 12:53:50 PM 41.4792 -95.9872 216° Southwest 214 246 4,200 -3,097 Descending Minneapolis Center
Fri 12:54:21 PM 41.4608 -95.9817 167° South 222 255 3,300 -1,100 Descending Minneapolis Center
Fri 12:54:50 PM 41.4314 -95.9928 196° South 156 180 3,100 -381 Descending Minneapolis Center
Fri 12:55:24 PM 41.4100 -95.9761 150° Southeast 174 200 2,900 -197 Descending Minneapolis Center
Fri 12:55:51 PM 41.3947 -95.9775 184° South 108 124 2,900 -484 Level Minneapolis Center
Fri 12:56:26 PM 41.3786 -95.9622 145° Southeast 141 162 2,400 -627 Descending Minneapolis Center
Fri 12:56:58 PM 41.3619 -95.9533 158° South 124 143 2,200 -581 Descending Minneapolis Center
Fri 12:57:28 PM 41.3500 -95.9369 134° Southeast 127 146 1,800 -636 Descending Minneapolis Center
Fri 12:58:04 PM 41.3328 -95.9236 150° Southeast 124 143 1,500 -581 Descending Minneapolis Center
Fri 12:58:30 PM 41.3225 -95.9083 132° Southeast 124 143 1,200 -692 Descending Minneapolis Center
Fri 01:00:00 PM 41.3000 -95.8833 124° Southeast  Level FlightAware Approximate

Login

Don't have an account? Register now (free) for customized features, flight alerts, and more!